createdAt,value
2019-05-01T00:01:45.392Z,102113.72
2019-05-01T00:04:18.263Z,102105.56
2019-05-01T00:06:51.235Z,102101.25
2019-05-01T00:09:24.531Z,102101.52
2019-05-01T00:11:57.585Z,102099.36
2019-05-01T00:14:30.770Z,102096.71
2019-05-01T00:17:03.834Z,102096.60
2019-05-01T00:19:36.717Z,102091.31
2019-05-01T00:22:09.714Z,102097.84
2019-05-01T00:24:42.590Z,102095.52
2019-05-01T00:27:15.675Z,102086.88
2019-05-01T00:29:48.570Z,102083.32
2019-05-01T00:32:21.748Z,102085.42
2019-05-01T00:34:54.910Z,102076.06
2019-05-01T00:37:27.815Z,102073.38
2019-05-01T00:40:01.471Z,102073.00
2019-05-01T00:42:34.449Z,102073.87
2019-05-01T00:45:07.527Z,102074.24
2019-05-01T00:47:40.516Z,102070.67
2019-05-01T00:50:13.582Z,102065.13
2019-05-01T00:52:46.543Z,102067.21
2019-05-01T00:55:19.498Z,102065.86
2019-05-01T00:57:52.463Z,102064.51
2019-05-01T01:00:25.363Z,102059.86
2019-05-01T01:02:58.307Z,102059.22
2019-05-01T01:05:31.280Z,102058.84
2019-05-01T01:08:04.505Z,102056.95
2019-05-01T01:10:38.034Z,102058.05
2019-05-01T01:13:10.910Z,102055.45
2019-05-01T01:15:43.837Z,102057.23
2019-05-01T01:18:16.815Z,102050.36
2019-05-01T01:20:49.791Z,102050.36
2019-05-01T01:23:22.998Z,102049.83
2019-05-01T01:25:55.994Z,102050.42
2019-05-01T01:28:30.064Z,102049.94
2019-05-01T01:31:05.115Z,102048.59
2019-05-01T01:33:38.523Z,102040.75
2019-05-01T01:36:22.453Z,102040.75
2019-05-01T01:39:00.547Z,102041.23
2019-05-01T01:41:34.643Z,102044.59
2019-05-01T01:44:09.924Z,102030.45
2019-05-01T01:47:01.223Z,102034.60
2019-05-01T01:49:39.908Z,102034.60
2019-05-01T01:52:18.738Z,102034.38
2019-05-01T01:54:55.159Z,102028.98
2019-05-01T01:57:43.912Z,102028.98
2019-05-01T02:00:17.104Z,102027.15
2019-05-01T02:02:51.405Z,102029.58
2019-05-01T02:05:27.551Z,102029.58
2019-05-01T02:08:02.248Z,102025.53
2019-05-01T02:10:45.383Z,102025.10
2019-05-01T02:13:20.872Z,102022.89
2019-05-01T02:16:01.137Z,102018.95
2019-05-01T02:18:35.441Z,102018.52
2019-05-01T02:21:15.150Z,102016.58
2019-05-01T02:23:49.038Z,102012.59
2019-05-01T02:26:25.275Z,102012.59
2019-05-01T02:29:01.530Z,102008.91
2019-05-01T02:31:38.111Z,102007.08
2019-05-01T02:34:16.713Z,102001.31
2019-05-01T02:36:53.818Z,101999.20
2019-05-01T02:39:32.474Z,102002.33
2019-05-01T02:42:10.440Z,101990.30
2019-05-01T02:44:49.362Z,101990.30
2019-05-01T02:47:27.177Z,101988.95
2019-05-01T02:50:32.467Z,101988.95
2019-05-01T02:53:07.007Z,101989.17
2019-05-01T02:55:52.818Z,101992.63
2019-05-01T02:58:30.018Z,101991.27
2019-05-01T03:01:14.284Z,101986.84
2019-05-01T03:03:50.313Z,101989.70
2019-05-01T03:06:27.871Z,101988.84
2019-05-01T03:09:04.546Z,101986.91
2019-05-01T03:11:41.982Z,101977.41
2019-05-01T03:14:19.373Z,101977.41
2019-05-01T03:16:56.356Z,101979.02
2019-05-01T03:19:35.816Z,101972.66
2019-05-01T03:22:11.938Z,101972.28
2019-05-01T03:24:52.065Z,101971.52
2019-05-01T03:27:27.911Z,101966.86
2019-05-01T03:30:10.678Z,101974.59
2019-05-01T03:32:49.321Z,101974.59
2019-05-01T03:35:28.091Z,101971.63
2019-05-01T03:38:16.756Z,101969.56
2019-05-01T03:40:56.254Z,101965.89
2019-05-01T03:43:34.058Z,101966.48
2019-05-01T03:46:09.859Z,101966.44
2019-05-01T03:48:50.235Z,101961.84
2019-05-01T03:51:30.269Z,101963.84
2019-05-01T03:54:10.216Z,101968.00
2019-05-01T03:56:47.662Z,101960.02
2019-05-01T03:59:24.708Z,101949.22
2019-05-01T04:02:02.787Z,101950.09
2019-05-01T04:04:42.052Z,101953.81
2019-05-01T04:07:27.920Z,101950.95
2019-05-01T04:10:06.922Z,101950.95
2019-05-01T04:12:42.110Z,101949.00
2019-05-01T04:15:18.875Z,101946.47
2019-05-01T04:17:57.810Z,101951.76
2019-05-01T04:20:39.998Z,101951.76
2019-05-01T04:23:30.115Z,101949.56
2019-05-01T04:26:11.227Z,101952.26
2019-05-01T04:29:17.593Z,101950.19
2019-05-01T04:31:47.295Z,101952.15
2019-05-01T04:34:21.580Z,101948.53
2019-05-01T04:36:56.701Z,101953.17
2019-05-01T04:39:59.775Z,101948.05
2019-05-01T04:42:42.118Z,101952.84
2019-05-01T04:45:51.254Z,101955.66
2019-05-01T04:48:29.061Z,101957.00
2019-05-01T04:51:09.305Z,101958.62
2019-05-01T04:53:59.067Z,101958.62
2019-05-01T04:56:41.409Z,101957.16
2019-05-01T04:59:24.828Z,101961.74
2019-05-01T05:02:06.306Z,101961.74
2019-05-01T05:04:53.842Z,101959.05
2019-05-01T05:07:52.514Z,101957.09
2019-05-01T05:10:52.983Z,101962.50
2019-05-01T05:13:47.458Z,101964.53
2019-05-01T05:16:25.561Z,101964.73
2019-05-01T05:19:02.648Z,101961.92
2019-05-01T05:22:29.366Z,101963.66
2019-05-01T05:24:45.077Z,101959.91
2019-05-01T05:27:28.250Z,101966.66
2019-05-01T05:30:01.777Z,101962.30
2019-05-01T05:32:36.997Z,101967.70
2019-05-01T05:35:11.895Z,101967.19
2019-05-01T05:37:47.964Z,101964.22
2019-05-01T05:40:21.183Z,101962.53
2019-05-01T05:42:54.239Z,101967.33
2019-05-01T05:45:27.310Z,101971.01
2019-05-01T05:48:00.485Z,101972.28
2019-05-01T05:50:36.701Z,101965.34
2019-05-01T05:53:12.889Z,101966.21
2019-05-01T05:55:48.154Z,101967.90
2019-05-01T05:58:23.646Z,101966.32
2019-05-01T06:00:59.300Z,101971.42
2019-05-01T06:03:35.164Z,101971.42
2019-05-01T06:06:09.965Z,101969.13
2019-05-01T06:08:45.836Z,101966.05
2019-05-01T06:11:19.193Z,101965.97
2019-05-01T06:13:57.007Z,101967.45
2019-05-01T06:16:30.989Z,101962.80
2019-05-01T06:19:04.152Z,101962.83
2019-05-01T06:21:39.156Z,101969.44
2019-05-01T06:24:12.602Z,101964.67
2019-05-01T06:26:46.122Z,101968.09
2019-05-01T06:29:19.516Z,101965.88
2019-05-01T06:31:54.019Z,101960.30
2019-05-01T06:34:28.674Z,101963.27
2019-05-01T06:37:02.116Z,101961.56
2019-05-01T06:39:36.084Z,101961.11
2019-05-01T06:42:09.891Z,101961.11
2019-05-01T06:44:44.785Z,101961.11
2019-05-01T06:47:17.995Z,101959.14
2019-05-01T06:49:52.175Z,101963.59
2019-05-01T06:52:29.309Z,101965.20
2019-05-01T06:55:00.875Z,101963.53
2019-05-01T06:57:38.551Z,101967.32
2019-05-01T07:00:10.202Z,101959.95
2019-05-01T07:02:45.119Z,101966.23
2019-05-01T07:05:20.739Z,101970.25
2019-05-01T07:07:55.666Z,101968.78
2019-05-01T07:10:42.528Z,101968.78
2019-05-01T07:13:04.947Z,101959.95
2019-05-01T07:15:38.279Z,101959.95
2019-05-01T07:18:11.598Z,101964.02
2019-05-01T07:20:47.399Z,101961.06
2019-05-01T07:23:20.651Z,101959.61
2019-05-01T07:25:54.223Z,101960.33
2019-05-01T07:28:29.082Z,101952.97
2019-05-01T07:31:04.871Z,101951.26
2019-05-01T07:33:36.540Z,101951.26
2019-05-01T07:36:15.548Z,101952.85
2019-05-01T07:38:46.141Z,101956.91
2019-05-01T07:41:19.539Z,101956.91
2019-05-01T07:43:54.866Z,101951.73
2019-05-01T07:46:27.700Z,101955.64
2019-05-01T07:49:01.074Z,101952.84
2019-05-01T07:51:55.076Z,101955.01
2019-05-01T07:54:28.750Z,101954.81
2019-05-01T07:57:16.424Z,101954.56
2019-05-01T08:00:03.151Z,101965.15
2019-05-01T08:02:35.805Z,101959.98
2019-05-01T08:05:40.822Z,101960.36
2019-05-01T08:08:16.586Z,101960.36
2019-05-01T08:11:05.354Z,101957.41
2019-05-01T08:13:39.821Z,101962.31
2019-05-01T08:16:28.871Z,101966.41
2019-05-01T08:19:05.890Z,101961.32
2019-05-01T08:21:47.207Z,101963.55
2019-05-01T08:24:22.886Z,101967.75
2019-05-01T08:26:59.735Z,101965.91
2019-05-01T08:29:46.181Z,101965.91
2019-05-01T08:32:39.168Z,101968.33
2019-05-01T08:35:23.565Z,101975.59
2019-05-01T08:38:01.550Z,101975.59
2019-05-01T08:40:37.693Z,101969.51
2019-05-01T08:43:28.789Z,101976.02
2019-05-01T08:46:04.949Z,101967.41
2019-05-01T08:48:45.276Z,101967.41
2019-05-01T08:51:18.567Z,101970.91
2019-05-01T08:53:57.647Z,101973.69
2019-05-01T08:56:31.217Z,101964.52
2019-05-01T08:59:11.276Z,101965.13
2019-05-01T09:01:50.609Z,101970.31
2019-05-01T09:04:30.496Z,101970.31
2019-05-01T09:07:14.597Z,101968.80
2019-05-01T09:09:50.964Z,101965.72
2019-05-01T09:12:28.160Z,101965.72
2019-05-01T09:15:07.104Z,101960.86
2019-05-01T09:17:43.986Z,101955.91
2019-05-01T09:20:36.460Z,101955.91
2019-05-01T09:23:18.290Z,101956.81
2019-05-01T09:25:57.338Z,101956.42
2019-05-01T09:28:39.797Z,101952.25
2019-05-01T09:31:12.828Z,101954.58
2019-05-01T09:33:47.868Z,101949.20
2019-05-01T09:36:27.495Z,101945.19
2019-05-01T09:39:07.221Z,101945.19
2019-05-01T09:41:47.440Z,101951.48
2019-05-01T09:44:25.208Z,101948.03
2019-05-01T09:47:00.783Z,101947.56
2019-05-01T09:49:40.104Z,101949.01
2019-05-01T09:52:29.763Z,101949.01
2019-05-01T09:55:13.208Z,101944.50
2019-05-01T09:57:51.773Z,101942.77
2019-05-01T10:00:30.057Z,101944.74
2019-05-01T10:03:13.143Z,101939.78
2019-05-01T10:05:49.335Z,101938.53
2019-05-01T10:08:40.056Z,101938.53
2019-05-01T10:11:19.646Z,101934.22
2019-05-01T10:13:58.393Z,101933.36
2019-05-01T10:16:43.490Z,101928.40
2019-05-01T10:19:28.061Z,101922.97
2019-05-01T10:22:10.104Z,101922.97
2019-05-01T10:24:47.072Z,101920.89
2019-05-01T10:27:30.862Z,101918.59
2019-05-01T10:30:03.497Z,101915.96
2019-05-01T10:32:36.374Z,101915.37
2019-05-01T10:35:09.348Z,101910.17
2019-05-01T10:37:42.304Z,101906.59
2019-05-01T10:40:15.367Z,101906.59
2019-05-01T10:42:48.335Z,101904.16
2019-05-01T10:45:21.283Z,101904.16
2019-05-01T10:47:54.243Z,101908.50
2019-05-01T10:50:27.142Z,101905.28
2019-05-01T10:53:00.209Z,101907.91
2019-05-01T10:55:33.200Z,101900.30
2019-05-01T10:58:06.168Z,101900.30
2019-05-01T11:00:51.163Z,101901.92
2019-05-01T11:03:24.088Z,101899.19
2019-05-01T11:05:57.161Z,101907.97
2019-05-01T11:09:03.386Z,101907.97
2019-05-01T11:11:47.416Z,101900.73
2019-05-01T11:14:40.983Z,101897.13
2019-05-01T11:17:15.467Z,101890.22
2019-05-01T11:20:03.201Z,101890.22
2019-05-01T11:23:03.429Z,101892.78
2019-05-01T11:25:40.352Z,101885.07
2019-05-01T11:28:26.738Z,101874.30
2019-05-01T11:31:06.354Z,101874.30
2019-05-01T11:33:49.005Z,101882.58
2019-05-01T11:36:31.956Z,101885.91
2019-05-01T11:39:42.112Z,101885.91
2019-05-01T11:42:16.103Z,101880.33
2019-05-01T11:44:49.502Z,101880.33
2019-05-01T11:47:22.969Z,101870.34
2019-05-01T11:50:16.402Z,101870.34
2019-05-01T11:53:02.988Z,101873.78
2019-05-01T11:55:44.391Z,101874.84
2019-05-01T11:58:26.883Z,101874.84
2019-05-01T12:01:11.132Z,101870.58
2019-05-01T12:03:44.751Z,101863.94
2019-05-01T12:06:31.374Z,101868.66
2019-05-01T12:09:11.473Z,101867.77
2019-05-01T12:12:10.054Z,101864.28
2019-05-01T12:15:01.709Z,101865.16
2019-05-01T12:20:59.861Z,101861.74
2019-05-01T12:23:39.531Z,101861.78
2019-05-01T12:26:19.416Z,101859.98
2019-05-01T12:29:07.225Z,101861.56
2019-05-01T12:31:46.011Z,101857.50
2019-05-01T12:34:26.303Z,101861.92
2019-05-01T12:37:04.936Z,101849.48
2019-05-01T12:39:44.154Z,101843.40
2019-05-01T12:42:25.952Z,101843.40
2019-05-01T12:45:01.410Z,101845.27
2019-05-01T12:47:41.258Z,101835.52
2019-05-01T12:50:18.271Z,101835.52
2019-05-01T12:52:58.100Z,101840.17
2019-05-01T12:55:52.081Z,101836.05
2019-05-01T12:58:33.948Z,101834.95
2019-05-01T13:01:10.413Z,101834.95
2019-05-01T13:03:45.128Z,101833.11
2019-05-01T13:06:24.314Z,101829.59
2019-05-01T13:09:05.962Z,101829.59
2019-05-01T13:11:39.672Z,101823.72
2019-05-01T13:14:16.668Z,101815.43
2019-05-01T13:16:50.167Z,101815.43
2019-05-01T13:19:23.656Z,101812.67
2019-05-01T13:21:57.473Z,101812.67
2019-05-01T13:24:34.141Z,101803.85
2019-05-01T13:27:07.310Z,101803.85
2019-05-01T13:29:41.572Z,101808.70
2019-05-01T13:32:16.149Z,101810.38
2019-05-01T13:34:52.906Z,101799.70
2019-05-01T13:37:28.405Z,101800.87
2019-05-01T13:40:09.364Z,101800.87
2019-05-01T13:42:57.748Z,101805.09
2019-05-01T13:45:33.356Z,101792.76
2019-05-01T13:48:09.807Z,101792.76
2019-05-01T13:50:43.850Z,101783.90
2019-05-01T13:53:18.553Z,101783.90
2019-05-01T13:55:56.454Z,101789.34
2019-05-01T13:58:30.744Z,101784.64
2019-05-01T14:01:11.419Z,101777.39
2019-05-01T14:03:53.018Z,101777.39
2019-05-01T14:06:32.996Z,101773.66
2019-05-01T14:09:11.994Z,101772.16
2019-05-01T14:11:56.379Z,101761.72
2019-05-01T14:14:35.261Z,101761.72
2019-05-01T14:17:13.993Z,101759.64
2019-05-01T14:19:57.521Z,101759.64
2019-05-01T14:22:41.536Z,101754.30
2019-05-01T14:25:26.559Z,101748.34
2019-05-01T14:28:20.929Z,101748.34
2019-05-01T14:30:58.319Z,101747.20
2019-05-01T14:33:41.281Z,101750.69
2019-05-01T14:36:32.504Z,101744.03
2019-05-01T14:39:09.585Z,101737.84
2019-05-01T14:41:46.866Z,101737.43
2019-05-01T14:44:35.628Z,101726.53
2019-05-01T14:47:07.108Z,101726.53
2019-05-01T14:49:46.101Z,101731.83
2019-05-01T14:52:24.007Z,101731.83
2019-05-01T14:55:40.599Z,101730.31
2019-05-01T14:58:26.381Z,101729.72
2019-05-01T15:01:05.417Z,101727.95
2019-05-01T15:03:40.328Z,101723.41
2019-05-01T15:06:31.036Z,101721.34
2019-05-01T15:09:14.197Z,101721.55
2019-05-01T15:11:59.565Z,101721.55
2019-05-01T15:14:43.632Z,101718.80
2019-05-01T15:17:23.325Z,101718.80
2019-05-01T15:20:04.112Z,101709.96
2019-05-01T15:22:42.344Z,101709.96
2019-05-01T15:25:20.338Z,101705.49
2019-05-01T15:27:54.634Z,101703.88
2019-05-01T15:30:32.312Z,101703.33
2019-05-01T15:33:15.360Z,101697.13
2019-05-01T15:35:58.730Z,101697.13
2019-05-01T15:38:42.760Z,101700.71
2019-05-01T15:41:23.522Z,101690.92
2019-05-01T15:44:19.803Z,101690.92
2019-05-01T15:47:00.593Z,101697.16
2019-05-01T15:49:40.090Z,101692.08
2019-05-01T15:52:20.956Z,101691.64
2019-05-01T15:55:07.541Z,101691.64
2019-05-01T15:57:48.201Z,101687.34
2019-05-01T16:00:29.965Z,101687.25
2019-05-01T16:03:13.502Z,101686.59
2019-05-01T16:06:13.657Z,101687.27
2019-05-01T16:08:48.598Z,101678.25
2019-05-01T16:11:25.359Z,101677.75
2019-05-01T16:14:07.285Z,101675.67
2019-05-01T16:16:54.645Z,101675.67
2019-05-01T16:19:35.393Z,101674.14
2019-05-01T16:22:16.840Z,101674.14
2019-05-01T16:25:01.015Z,101665.76
2019-05-01T16:27:57.415Z,101665.76
2019-05-01T16:30:33.026Z,101657.96
2019-05-01T16:33:23.730Z,101657.47
2019-05-01T16:36:15.454Z,101652.33
2019-05-01T16:39:03.985Z,101652.33
2019-05-01T16:41:49.013Z,101655.33
2019-05-01T16:44:30.258Z,101647.20
2019-05-01T16:47:12.094Z,101650.87
2019-05-01T16:49:47.796Z,101642.42
2019-05-01T16:52:30.641Z,101635.07
2019-05-01T16:55:26.316Z,101639.72
2019-05-01T16:58:22.662Z,101639.72
2019-05-01T17:01:09.310Z,101635.16
2019-05-01T17:03:50.429Z,101636.02
2019-05-01T17:06:32.748Z,101628.38
2019-05-01T17:09:13.192Z,101628.38
2019-05-01T17:11:52.329Z,101623.45
2019-05-01T17:14:34.309Z,101623.45
2019-05-01T17:17:10.144Z,101617.13
2019-05-01T17:19:52.627Z,101617.13
2019-05-01T17:22:42.084Z,101620.55
2019-05-01T17:25:19.137Z,101607.30
2019-05-01T17:28:03.059Z,101607.30
2019-05-01T17:30:57.531Z,101609.18
2019-05-01T17:33:41.930Z,101612.91
2019-05-01T17:36:17.602Z,101612.91
2019-05-01T17:39:01.240Z,101600.99
2019-05-01T17:42:02.065Z,101603.61
2019-05-01T17:44:55.949Z,101606.70
2019-05-01T17:47:41.152Z,101605.55
2019-05-01T17:50:16.543Z,101605.55
2019-05-01T17:52:58.977Z,101607.63
2019-05-01T17:55:35.854Z,101592.93
2019-05-01T17:58:22.132Z,101600.00
2019-05-01T18:01:15.870Z,101600.00
2019-05-01T18:03:38.590Z,101594.65
2019-05-01T18:06:41.992Z,101593.61
2019-05-01T18:09:13.507Z,101591.32
2019-05-01T18:11:53.605Z,101591.32
2019-05-01T18:14:43.318Z,101586.11
2019-05-01T18:17:23.860Z,101586.11
2019-05-01T18:20:04.822Z,101591.79
2019-05-01T18:22:42.828Z,101581.60
2019-05-01T18:25:22.964Z,101578.42
2019-05-01T18:28:14.039Z,101575.66
2019-05-01T18:31:04.069Z,101575.66
2019-05-01T18:33:37.289Z,101571.47
2019-05-01T18:36:14.847Z,101569.64
2019-05-01T18:38:48.922Z,101574.33
2019-05-01T18:41:33.493Z,101574.33
2019-05-01T18:44:10.231Z,101576.48
2019-05-01T18:46:47.832Z,101576.48
2019-05-01T18:49:28.338Z,101579.93
2019-05-01T18:52:15.979Z,101572.23
2019-05-01T18:55:01.894Z,101571.02
2019-05-01T18:57:33.922Z,101572.36
2019-05-01T19:00:13.018Z,101572.36
2019-05-01T19:02:53.645Z,101573.23
2019-05-01T19:05:31.699Z,101573.23
2019-05-01T19:08:16.306Z,101576.34
2019-05-01T19:10:53.671Z,101576.70
2019-05-01T19:13:29.212Z,101576.70
2019-05-01T19:16:14.309Z,101580.91
2019-05-01T19:18:50.450Z,101580.53
2019-05-01T19:21:27.326Z,101568.99
2019-05-01T19:24:05.949Z,101575.03
2019-05-01T19:26:44.146Z,101575.73
2019-05-01T19:29:26.626Z,101575.73
2019-05-01T19:32:06.438Z,101574.52
2019-05-01T19:34:57.875Z,101579.08
2019-05-01T19:37:35.662Z,101577.36
2019-05-01T19:40:17.467Z,101577.36
2019-05-01T19:42:53.614Z,101575.77
2019-05-01T19:45:28.237Z,101568.76
2019-05-01T19:48:03.720Z,101564.95
2019-05-01T19:50:39.862Z,101564.95
2019-05-01T19:53:17.563Z,101559.06
2019-05-01T19:56:01.624Z,101555.14
2019-05-01T19:58:44.224Z,101555.14
2019-05-01T20:01:29.793Z,101563.48
2019-05-01T20:04:25.116Z,101557.47
2019-05-01T20:07:10.482Z,101557.47
2019-05-01T20:09:56.423Z,101559.56
2019-05-01T20:12:22.773Z,101558.71
2019-05-01T20:15:01.650Z,101558.71
2019-05-01T20:17:38.581Z,101556.63
2019-05-01T20:20:16.290Z,101553.53
2019-05-01T20:22:53.090Z,101553.53
2019-05-01T20:25:55.818Z,101550.22
2019-05-01T20:28:47.056Z,101557.47
2019-05-01T20:31:50.730Z,101552.80
2019-05-01T20:34:39.029Z,101552.80
2019-05-01T20:37:24.089Z,101543.11
2019-05-01T20:40:16.732Z,101540.41
2019-05-01T20:43:10.824Z,101538.94
2019-05-01T20:45:59.564Z,101538.94
2019-05-01T20:49:06.774Z,101532.80
2019-05-01T20:51:51.833Z,101535.62
2019-05-01T20:54:33.850Z,101531.08
2019-05-01T20:57:13.051Z,101533.91
2019-05-01T21:00:03.573Z,101529.61
2019-05-01T21:02:44.577Z,101529.61
2019-05-01T21:05:37.487Z,101526.30
2019-05-01T21:08:40.556Z,101522.48
2019-05-01T21:11:26.696Z,101518.69
2019-05-01T21:14:18.133Z,101518.69
2019-05-01T21:16:55.937Z,101512.06
2019-05-01T21:19:37.212Z,101512.06
2019-05-01T21:22:16.435Z,101507.64
2019-05-01T21:25:13.782Z,101506.66
2019-05-01T21:27:57.236Z,101506.66
2019-05-01T21:30:38.771Z,101504.33
2019-05-01T21:33:16.590Z,101500.03
2019-05-01T21:35:54.055Z,101496.96
2019-05-01T21:38:40.871Z,101490.95
2019-05-01T21:41:18.473Z,101490.95
2019-05-01T21:43:54.311Z,101490.21
2019-05-01T21:46:28.139Z,101490.42
2019-05-01T21:49:24.809Z,101491.56
2019-05-01T21:52:03.590Z,101486.16
2019-05-01T21:54:37.432Z,101486.16
2019-05-01T21:57:17.453Z,101485.06
2019-05-01T21:59:55.282Z,101477.45
2019-05-01T22:02:53.306Z,101477.45
2019-05-01T22:05:34.678Z,101477.94
2019-05-01T22:08:24.042Z,101472.05
2019-05-01T22:11:22.556Z,101472.05
2019-05-01T22:14:09.401Z,101471.92
2019-05-01T22:16:53.151Z,101469.59
2019-05-01T22:19:29.849Z,101462.72
2019-05-01T22:22:13.421Z,101462.72
2019-05-01T22:25:05.905Z,101460.52
2019-05-01T22:30:56.998Z,101448.85
2019-05-01T22:33:34.569Z,101451.19
2019-05-01T22:36:10.663Z,101452.30
2019-05-01T22:39:17.071Z,101450.82
2019-05-01T22:42:09.090Z,101449.71
2019-05-01T22:47:53.181Z,101440.27
2019-05-01T22:50:42.614Z,101437.92
2019-05-01T22:53:16.588Z,101437.92
2019-05-01T22:56:04.233Z,101435.56
2019-05-01T22:58:41.844Z,101437.56
2019-05-01T23:01:18.080Z,101434.00
2019-05-01T23:03:50.385Z,101426.27
2019-05-01T23:06:23.346Z,101430.32
2019-05-01T23:08:56.368Z,101427.98
2019-05-01T23:11:29.643Z,101426.16
2019-05-01T23:14:02.580Z,101412.40
2019-05-01T23:16:35.452Z,101412.40
2019-05-01T23:19:08.321Z,101414.98
2019-05-01T23:21:41.272Z,101414.44
2019-05-01T23:24:14.130Z,101414.44
2019-05-01T23:26:48.041Z,101399.77
2019-05-01T23:29:21.843Z,101402.17
2019-05-01T23:31:54.726Z,101402.17
2019-05-01T23:34:28.036Z,101396.41
2019-05-01T23:37:00.892Z,101387.61
2019-05-01T23:39:39.733Z,101387.24
2019-05-01T23:42:08.762Z,101387.24
2019-05-01T23:44:43.022Z,101388.35
2019-05-01T23:47:16.311Z,101383.09
2019-05-01T23:49:52.664Z,101389.09
2019-05-01T23:52:24.218Z,101389.09
2019-05-01T23:54:57.084Z,101384.69
2019-05-01T23:57:29.974Z,101384.69
